Time;durP1;ratioP1;P1;durP2;ratioP2;P2;SDS_P1;SDS_P2;PMS_P1;PMS_P2;Temp;Humidity;BMP_temperature;BMP_pressure;BME280_temperature;BME280_humidity;BME280_pressure;Samples;Min_cycle;Max_cycle;Signal;HPM_P1;HPM_P2
2022/05/23 00:00:19;;;;;;;13.52;9.65;;;;;;;;;;5053898;28;20136;-86
2022/05/23 00:02:47;;;;;;;13.50;9.02;;;;;;;;;;5053177;28;20060;-86
2022/05/23 00:05:14;;;;;;;10.88;8.90;;;;;;;;;;5052482;28;20087;-87
2022/05/23 00:07:43;;;;;;;13.93;8.93;;;;;;;;;;5052821;28;20483;-86
2022/05/23 00:10:12;;;;;;;16.88;8.75;;;;;;;;;;5052283;28;20103;-87
2022/05/23 00:12:40;;;;;;;14.18;8.88;;;;;;;;;;5052496;28;20051;-87
2022/05/23 00:15:08;;;;;;;10.93;8.48;;;;;;;;;;5053280;28;20116;-86
2022/05/23 00:17:36;;;;;;;10.15;9.00;;;;;;;;;;5052389;28;20144;-86
2022/05/23 00:20:04;;;;;;;13.07;8.90;;;;;;;;;;5053656;28;20099;-86
2022/05/23 00:22:31;;;;;;;9.93;8.40;;;;;;;;;;5052438;28;20132;-87
2022/05/23 00:24:59;;;;;;;13.65;9.45;;;;;;;;;;5052050;28;20148;-87
2022/05/23 00:27:26;;;;;;;11.98;10.02;;;;;;;;;;5051905;28;20142;-87
2022/05/23 00:29:53;;;;;;;12.63;9.60;;;;;;;;;;5035725;28;20056;-87
2022/05/23 00:35:19;;;;;;;14.13;9.70;;;;;;;;;;5053807;28;20080;-87
2022/05/23 00:37:51;;;;;;;11.13;9.07;;;;;;;;;;5053120;28;20480;-87
2022/05/23 00:40:29;;;;;;;11.18;8.95;;;;;;;;;;5052792;28;20394;-87
2022/05/23 00:43:31;;;;;;;11.38;9.45;;;;;;;;;;5052973;28;20051;-88
2022/05/23 00:46:02;;;;;;;12.63;9.40;;;;;;;;;;4972875;28;20133;-86
2022/05/23 00:48:31;;;;;;;15.30;10.23;;;;;;;;;;5040608;28;20049;-87
2022/05/23 00:51:02;;;;;;;11.43;9.73;;;;;;;;;;5053716;28;20055;-87
2022/05/23 00:53:31;;;;;;;13.90;9.73;;;;;;;;;;5052904;28;20407;-87
2022/05/23 00:55:58;;;;;;;10.50;9.40;;;;;;;;;;5060944;28;20052;-87
2022/05/23 00:58:28;;;;;;;10.80;8.70;;;;;;;;;;5088678;28;20475;-86
2022/05/23 01:00:58;;;;;;;10.13;9.10;;;;;;;;;;5077694;28;20079;-87
2022/05/23 01:03:25;;;;;;;10.13;8.90;;;;;;;;;;5088205;28;20139;-87
2022/05/23 01:05:54;;;;;;;10.65;9.23;;;;;;;;;;5077418;28;20056;-87
2022/05/23 01:08:22;;;;;;;15.05;9.52;;;;;;;;;;5087543;28;20099;-86
2022/05/23 01:10:49;;;;;;;15.32;9.88;;;;;;;;;;5077587;28;20163;-86
2022/05/23 01:13:16;;;;;;;14.90;9.38;;;;;;;;;;5077446;28;20131;-86
2022/05/23 01:15:45;;;;;;;9.80;8.68;;;;;;;;;;5077907;28;20463;-86
2022/05/23 01:18:13;;;;;;;14.00;8.60;;;;;;;;;;5077216;28;20044;-87
2022/05/23 01:20:40;;;;;;;10.52;9.43;;;;;;;;;;5089835;28;20080;-87
2022/05/23 01:23:20;;;;;;;11.25;9.02;;;;;;;;;;5085696;28;20475;-87
2022/05/23 01:25:47;;;;;;;10.90;9.07;;;;;;;;;;5093101;28;20080;-87
2022/05/23 01:28:15;;;;;;;11.80;9.88;;;;;;;;;;5077106;28;20047;-87
2022/05/23 01:30:42;;;;;;;13.35;9.50;;;;;;;;;;5090168;28;20071;-87
2022/05/23 01:33:11;;;;;;;11.80;9.68;;;;;;;;;;5077111;28;20052;-87
2022/05/23 01:35:38;;;;;;;12.13;10.00;;;;;;;;;;5089491;28;20473;-87
2022/05/23 01:38:06;;;;;;;14.38;10.07;;;;;;;;;;5077191;28;20076;-86
2022/05/23 01:40:33;;;;;;;12.20;9.65;;;;;;;;;;5076685;28;20080;-87
2022/05/23 01:43:00;;;;;;;12.02;9.90;;;;;;;;;;5076896;28;20131;-86
2022/05/23 01:45:30;;;;;;;15.48;10.32;;;;;;;;;;5088009;28;20485;-87
2022/05/23 01:47:57;;;;;;;13.18;9.80;;;;;;;;;;5076143;28;20053;-87
2022/05/23 01:50:25;;;;;;;12.23;10.10;;;;;;;;;;5087374;28;20053;-87
2022/05/23 01:52:52;;;;;;;11.30;9.98;;;;;;;;;;5075822;28;20496;-87
2022/05/23 01:55:20;;;;;;;11.98;9.57;;;;;;;;;;5086038;28;20080;-87
2022/05/23 01:57:48;;;;;;;10.90;9.57;;;;;;;;;;5057374;28;20055;-87
2022/05/23 02:03:01;;;;;;;11.63;10.45;;;;;;;;;;5076619;28;20048;-86
2022/05/23 02:05:30;;;;;;;12.82;10.43;;;;;;;;;;5076219;28;20045;-87
2022/05/23 02:07:57;;;;;;;12.85;10.05;;;;;;;;;;5058645;28;20161;-87
2022/05/23 02:10:24;;;;;;;16.30;10.38;;;;;;;;;;5058437;28;20484;-87
2022/05/23 02:12:52;;;;;;;12.10;10.15;;;;;;;;;;5058345;28;20503;-87
2022/05/23 02:15:19;;;;;;;14.98;10.73;;;;;;;;;;5058782;28;20123;-87
2022/05/23 02:17:46;;;;;;;14.13;10.27;;;;;;;;;;5058399;28;20048;-87
2022/05/23 02:20:14;;;;;;;12.05;9.68;;;;;;;;;;5075909;28;20084;-87
2022/05/23 02:22:41;;;;;;;12.70;10.20;;;;;;;;;;5075142;28;20055;-87
2022/05/23 02:25:09;;;;;;;18.67;11.25;;;;;;;;;;5076214;28;20422;-87
2022/05/23 02:27:36;;;;;;;15.60;10.85;;;;;;;;;;5058793;28;20385;-87
2022/05/23 02:30:04;;;;;;;16.98;11.38;;;;;;;;;;5075852;28;20515;-86
2022/05/23 02:32:31;;;;;;;16.05;12.35;;;;;;;;;;5060358;28;20477;-88
2022/05/23 02:34:58;;;;;;;14.38;11.90;;;;;;;;;;5058813;28;20556;-88
2022/05/23 02:37:26;;;;;;;16.88;12.30;;;;;;;;;;5058898;28;20131;-87
2022/05/23 02:39:54;;;;;;;18.48;12.27;;;;;;;;;;5058718;28;20136;-87
2022/05/23 02:42:21;;;;;;;14.30;12.07;;;;;;;;;;5058075;28;20131;-88
2022/05/23 02:44:48;;;;;;;17.92;12.48;;;;;;;;;;5075720;28;20044;-87
2022/05/23 02:47:16;;;;;;;17.75;13.18;;;;;;;;;;5057764;28;20052;-87
2022/05/23 02:49:43;;;;;;;14.43;12.48;;;;;;;;;;5057963;28;20431;-86
2022/05/23 02:52:10;;;;;;;18.45;11.93;;;;;;;;;;5058155;28;20150;-87
2022/05/23 02:54:37;;;;;;;15.88;11.48;;;;;;;;;;5058003;28;20152;-87
2022/05/23 02:57:04;;;;;;;16.63;12.23;;;;;;;;;;5069634;28;20139;-87
2022/05/23 02:59:32;;;;;;;16.17;11.98;;;;;;;;;;5075044;28;20045;-87
2022/05/23 03:04:45;;;;;;;13.85;11.15;;;;;;;;;;5075631;28;20060;-87
2022/05/23 03:07:12;;;;;;;24.17;11.80;;;;;;;;;;5067509;28;20445;-87
2022/05/23 03:09:39;;;;;;;19.08;11.20;;;;;;;;;;5074122;28;20044;-87
2022/05/23 03:12:07;;;;;;;12.80;10.85;;;;;;;;;;5066527;28;20041;-87
2022/05/23 03:14:34;;;;;;;16.15;10.93;;;;;;;;;;5073731;28;20143;-87
2022/05/23 03:17:02;;;;;;;16.58;10.98;;;;;;;;;;5074086;28;20131;-87
2022/05/23 03:19:30;;;;;;;16.23;11.18;;;;;;;;;;5069142;28;20049;-87
2022/05/23 03:27:29;;;;;;;12.40;9.90;;;;;;;;;;5074687;28;20062;-87
2022/05/23 03:29:56;;;;;;;11.93;9.32;;;;;;;;;;5089698;28;20055;-87
2022/05/23 03:32:23;;;;;;;10.82;9.20;;;;;;;;;;5085306;28;20058;-87
2022/05/23 03:34:51;;;;;;;11.43;9.77;;;;;;;;;;5090217;28;20139;-87
2022/05/23 03:37:18;;;;;;;12.68;9.45;;;;;;;;;;5084364;28;20056;-86
2022/05/23 03:39:45;;;;;;;11.30;9.77;;;;;;;;;;5090289;28;20044;-87
2022/05/23 03:42:12;;;;;;;14.32;10.40;;;;;;;;;;5083095;28;20190;-87
2022/05/23 03:44:40;;;;;;;15.40;10.52;;;;;;;;;;5073664;28;20124;-88
2022/05/23 03:47:07;;;;;;;17.38;11.75;;;;;;;;;;5066178;28;20139;-87
2022/05/23 03:49:35;;;;;;;16.33;11.30;;;;;;;;;;5075633;28;20080;-87
2022/05/23 03:52:02;;;;;;;13.02;10.05;;;;;;;;;;5065335;28;20124;-87
2022/05/23 03:54:29;;;;;;;14.43;9.25;;;;;;;;;;5072864;28;20095;-87
2022/05/23 03:57:00;;;;;;;13.02;8.90;;;;;;;;;;5089123;28;20135;-87
2022/05/23 03:59:28;;;;;;;9.43;8.05;;;;;;;;;;5084731;28;20520;-87
2022/05/23 04:01:57;;;;;;;8.57;7.72;;;;;;;;;;5089427;28;20451;-87
2022/05/23 04:04:26;;;;;;;11.63;7.85;;;;;;;;;;5073894;28;20680;-87
2022/05/23 04:06:53;;;;;;;8.63;7.47;;;;;;;;;;5073945;28;20128;-87
2022/05/23 04:09:20;;;;;;;8.50;7.30;;;;;;;;;;5084410;28;20386;-87
2022/05/23 04:11:48;;;;;;;13.85;8.57;;;;;;;;;;5074180;28;20443;-87
2022/05/23 04:14:15;;;;;;;11.10;7.88;;;;;;;;;;5073736;28;20135;-86
2022/05/23 04:16:46;;;;;;;8.48;7.43;;;;;;;;;;5086970;28;20139;-86
2022/05/23 04:19:14;;;;;;;7.15;6.45;;;;;;;;;;5083039;28;20052;-87
2022/05/23 04:21:41;;;;;;;10.93;7.35;;;;;;;;;;5089348;28;20055;-87
2022/05/23 04:24:09;;;;;;;11.88;7.95;;;;;;;;;;5082349;28;20048;-87
2022/05/23 04:26:37;;;;;;;8.98;7.13;;;;;;;;;;5089847;28;20106;-87
2022/05/23 04:29:06;;;;;;;8.57;7.18;;;;;;;;;;5064871;28;20135;-87
2022/05/23 04:31:34;;;;;;;8.65;6.70;;;;;;;;;;5072561;28;20135;-88
2022/05/23 04:36:48;;;;;;;11.52;7.15;;;;;;;;;;5073311;28;20101;-88
2022/05/23 04:39:15;;;;;;;10.60;6.85;;;;;;;;;;5082137;28;20131;-87
2022/05/23 04:41:42;;;;;;;9.70;6.95;;;;;;;;;;5087952;28;20137;-87
2022/05/23 04:44:09;;;;;;;11.38;6.75;;;;;;;;;;5072772;28;20048;-87
2022/05/23 04:46:36;;;;;;;8.52;6.60;;;;;;;;;;5073261;28;20143;-87
2022/05/23 04:51:49;;;;;;;8.65;6.03;;;;;;;;;;5073313;28;20143;-86
2022/05/23 04:54:16;;;;;;;7.22;6.40;;;;;;;;;;5082144;28;20080;-87
2022/05/23 04:56:43;;;;;;;9.18;5.95;;;;;;;;;;5088594;28;20056;-88
2022/05/23 04:59:11;;;;;;;8.77;6.53;;;;;;;;;;5081622;28;20147;-87
2022/05/23 05:01:38;;;;;;;7.03;5.63;;;;;;;;;;5088880;28;20062;-87
2022/05/23 05:04:05;;;;;;;7.15;5.57;;;;;;;;;;5072923;28;20413;-87
2022/05/23 05:06:32;;;;;;;10.18;5.72;;;;;;;;;;5085177;28;20082;-87
2022/05/23 05:08:59;;;;;;;12.63;6.57;;;;;;;;;;5075386;28;20064;-88
2022/05/23 05:11:27;;;;;;;8.25;6.03;;;;;;;;;;5073087;28;20136;-87
2022/05/23 05:13:54;;;;;;;9.90;5.28;;;;;;;;;;5087607;28;20091;-87
2022/05/23 05:16:23;;;;;;;9.68;5.63;;;;;;;;;;5072981;28;20049;-88
2022/05/23 05:18:55;;;;;;;10.55;5.70;;;;;;;;;;5086812;28;20048;-88
2022/05/23 05:21:23;;;;;;;6.95;5.40;;;;;;;;;;5082472;28;20416;-87
2022/05/23 05:23:50;;;;;;;8.25;6.05;;;;;;;;;;5088444;28;20143;-87
2022/05/23 05:26:17;;;;;;;7.70;5.57;;;;;;;;;;5082069;28;20481;-88
2022/05/23 05:28:45;;;;;;;5.63;5.13;;;;;;;;;;5088486;28;20131;-87
2022/05/23 05:31:17;;;;;;;6.93;5.05;;;;;;;;;;5081241;28;20104;-87
2022/05/23 05:33:47;;;;;;;5.97;4.80;;;;;;;;;;5072725;28;20461;-87
2022/05/23 05:36:18;;;;;;;5.00;4.60;;;;;;;;;;5072528;28;20396;-87
2022/05/23 05:38:48;;;;;;;9.90;4.82;;;;;;;;;;5085933;28;20471;-87
2022/05/23 05:41:26;;;;;;;5.85;4.57;;;;;;;;;;5073377;28;20063;-87
2022/05/23 05:43:57;;;;;;;6.22;5.35;;;;;;;;;;5075958;28;20095;-87
2022/05/23 05:46:26;;;;;;;7.07;4.97;;;;;;;;;;5075884;28;20139;-87
2022/05/23 05:48:55;;;;;;;4.43;4.03;;;;;;;;;;5076064;28;20052;-87
2022/05/23 05:51:23;;;;;;;5.15;4.15;;;;;;;;;;5075803;28;20051;-87
2022/05/23 05:53:50;;;;;;;7.07;4.07;;;;;;;;;;5076008;28;20055;-87
2022/05/23 05:56:18;;;;;;;5.28;4.45;;;;;;;;;;5085056;28;20127;-87
2022/05/23 05:58:46;;;;;;;6.22;3.67;;;;;;;;;;5075726;28;20048;-87
2022/05/23 06:01:14;;;;;;;6.15;3.70;;;;;;;;;;5084315;28;20052;-87
2022/05/23 06:03:41;;;;;;;6.43;3.50;;;;;;;;;;5091551;28;20052;-87
2022/05/23 06:11:41;;;;;;;19.30;5.63;;;;;;;;;;5075618;28;20124;-87
2022/05/23 06:14:08;;;;;;;10.95;5.28;;;;;;;;;;5083638;28;20055;-88
2022/05/23 06:16:36;;;;;;;14.15;4.93;;;;;;;;;;5091217;28;20045;-87
2022/05/23 06:19:04;;;;;;;16.23;4.07;;;;;;;;;;5075265;28;20079;-87
2022/05/23 06:21:31;;;;;;;3.83;3.28;;;;;;;;;;5086568;28;20052;-87
2022/05/23 06:23:59;;;;;;;5.05;3.08;;;;;;;;;;5075020;28;20579;-87
2022/05/23 06:26:32;;;;;;;2.97;2.40;;;;;;;;;;5085786;28;20053;-87
2022/05/23 06:28:59;;;;;;;3.97;3.08;;;;;;;;;;5075307;28;20095;-87
2022/05/23 06:31:26;;;;;;;15.10;13.50;;;;;;;;;;5075046;28;20136;-88
2022/05/23 06:33:53;;;;;;;13.57;12.27;;;;;;;;;;5072899;28;20045;-87
2022/05/23 06:36:21;;;;;;;4.45;4.13;;;;;;;;;;5074652;28;20045;-86
2022/05/23 06:38:49;;;;;;;8.07;7.18;;;;;;;;;;5088760;28;20127;-87
2022/05/23 06:41:17;;;;;;;9.52;5.95;;;;;;;;;;5074923;28;20434;-87
2022/05/23 06:43:45;;;;;;;4.95;3.47;;;;;;;;;;5075006;28;20084;-87
2022/05/23 06:46:14;;;;;;;3.58;3.28;;;;;;;;;;5074432;28;20119;-87
2022/05/23 06:48:42;;;;;;;5.53;3.50;;;;;;;;;;5087808;28;20052;-87
2022/05/23 06:51:09;;;;;;;8.63;3.58;;;;;;;;;;5082852;28;20052;-87
2022/05/23 06:53:37;;;;;;;10.02;3.50;;;;;;;;;;5089379;28;20083;-87
2022/05/23 06:56:04;;;;;;;6.00;3.47;;;;;;;;;;5067383;28;20140;-87
2022/05/23 06:58:31;;;;;;;4.50;3.97;;;;;;;;;;5053649;28;20124;-87
2022/05/23 07:00:58;;;;;;;4.25;3.00;;;;;;;;;;5053396;28;20052;-87
2022/05/23 07:03:26;;;;;;;4.15;2.78;;;;;;;;;;5053140;28;20056;-86
2022/05/23 07:14:10;;;;;;;3.28;2.72;;;;;;;;;;5053953;28;20139;-87
2022/05/23 07:16:38;;;;;;;3.63;2.78;;;;;;;;;;5053229;28;20489;-87
2022/05/23 07:19:05;;;;;;;4.90;2.50;;;;;;;;;;5053168;28;20052;-87
2022/05/23 07:21:32;;;;;;;3.63;2.78;;;;;;;;;;5054068;28;20049;-87
2022/05/23 07:24:00;;;;;;;3.13;2.22;;;;;;;;;;5053097;28;20571;-87
2022/05/23 07:26:28;;;;;;;5.00;4.03;;;;;;;;;;5052828;28;20144;-87
2022/05/23 07:28:55;;;;;;;21.83;14.35;;;;;;;;;;5053895;28;20144;-87
2022/05/23 07:31:22;;;;;;;5.15;4.25;;;;;;;;;;5054204;28;20621;-86
2022/05/23 07:33:50;;;;;;;4.60;2.33;;;;;;;;;;5052888;28;20057;-87
2022/05/23 07:36:18;;;;;;;2.75;2.03;;;;;;;;;;5053899;28;20053;-86
2022/05/23 07:38:46;;;;;;;2.60;1.80;;;;;;;;;;5052472;28;20044;-87
2022/05/23 07:41:13;;;;;;;6.28;1.77;;;;;;;;;;5052504;28;20557;-87
2022/05/23 07:43:41;;;;;;;1.98;1.52;;;;;;;;;;5052389;28;20180;-86
2022/05/23 07:46:12;;;;;;;4.20;1.42;;;;;;;;;;5052420;28;20084;-87
2022/05/23 07:48:43;;;;;;;5.03;1.48;;;;;;;;;;5052947;28;20048;-86
2022/05/23 07:51:11;;;;;;;3.92;1.48;;;;;;;;;;5052112;28;20140;-86
2022/05/23 08:01:56;;;;;;;1.40;1.23;;;;;;;;;;5053149;28;20049;-84
2022/05/23 08:04:24;;;;;;;1.42;1.02;;;;;;;;;;5051603;28;20163;-83
2022/05/23 08:06:52;;;;;;;2.45;0.98;;;;;;;;;;5051717;28;20072;-85
2022/05/23 08:09:20;;;;;;;3.53;1.25;;;;;;;;;;5051604;28;20543;-83
2022/05/23 08:11:49;;;;;;;4.95;1.08;;;;;;;;;;5051851;28;20494;-84
2022/05/23 08:14:17;;;;;;;1.27;0.90;;;;;;;;;;5052642;28;20147;-85
2022/05/23 08:16:44;;;;;;;2.67;1.45;;;;;;;;;;5051501;28;20474;-85
2022/05/23 08:19:12;;;;;;;20.58;4.50;;;;;;;;;;5051945;28;20493;-83
2022/05/23 08:21:40;;;;;;;7.35;2.17;;;;;;;;;;5051732;28;20056;-84
2022/05/23 08:24:08;;;;;;;4.80;1.00;;;;;;;;;;5051746;28;20045;-83
2022/05/23 08:26:35;;;;;;;2.00;1.45;;;;;;;;;;5052794;28;20049;-83
2022/05/23 08:29:02;;;;;;;2.55;1.02;;;;;;;;;;5051566;28;20087;-84
2022/05/23 08:31:29;;;;;;;2.88;1.08;;;;;;;;;;5052270;28;20077;-84
2022/05/23 08:33:57;;;;;;;3.95;0.90;;;;;;;;;;5051399;28;20061;-84
2022/05/23 08:36:24;;;;;;;3.28;1.05;;;;;;;;;;5051380;28;20041;-83
2022/05/23 08:38:51;;;;;;;1.42;1.00;;;;;;;;;;5052543;28;20135;-84
2022/05/23 08:41:20;;;;;;;6.22;1.88;;;;;;;;;;5051349;28;20055;-84
2022/05/23 08:43:57;;;;;;;4.53;1.63;;;;;;;;;;5052325;28;20094;-81
2022/05/23 08:46:26;;;;;;;6.68;1.40;;;;;;;;;;5052487;28;20111;-84
2022/05/23 08:49:02;;;;;;;3.15;1.27;;;;;;;;;;5051406;28;20060;-82
2022/05/23 08:51:37;;;;;;;2.83;0.80;;;;;;;;;;5051093;28;20390;-81
2022/05/23 08:54:15;;;;;;;3.08;1.10;;;;;;;;;;5052517;28;20049;-82
2022/05/23 08:56:44;;;;;;;4.43;1.20;;;;;;;;;;5050850;28;20532;-84
2022/05/23 08:59:32;;;;;;;5.47;1.60;;;;;;;;;;5053336;28;20060;-85
2022/05/23 09:02:00;;;;;;;2.22;1.00;;;;;;;;;;5052429;28;20045;-85
2022/05/23 09:04:38;;;;;;;5.93;1.20;;;;;;;;;;5052316;28;20420;-84
2022/05/23 09:07:06;;;;;;;11.30;0.90;;;;;;;;;;5051168;28;20041;-83
2022/05/23 09:09:36;;;;;;;1.83;0.93;;;;;;;;;;5051324;28;20521;-83
2022/05/23 09:12:10;;;;;;;1.85;1.00;;;;;;;;;;5052289;28;20140;-83
2022/05/23 09:14:38;;;;;;;4.40;1.00;;;;;;;;;;5051042;28;20516;-84
2022/05/23 09:17:09;;;;;;;4.63;1.10;;;;;;;;;;5053441;28;20511;-83
2022/05/23 09:19:42;;;;;;;6.05;1.45;;;;;;;;;;5054899;28;20152;-85
2022/05/23 09:22:24;;;;;;;9.15;1.42;;;;;;;;;;5056047;28;20053;-84
2022/05/23 09:24:58;;;;;;;7.25;1.30;;;;;;;;;;5054528;28;20170;-83
2022/05/23 09:27:34;;;;;;;3.25;1.70;;;;;;;;;;5055977;28;20048;-83
2022/05/23 09:30:03;;;;;;;3.70;1.67;;;;;;;;;;5055718;28;20416;-85
2022/05/23 09:32:36;;;;;;;6.90;1.30;;;;;;;;;;5054594;28;20505;-88
2022/05/23 09:35:17;;;;;;;6.32;1.40;;;;;;;;;;5054670;28;20048;-85
2022/05/23 09:37:48;;;;;;;2.72;1.40;;;;;;;;;;5054620;28;20052;-84
2022/05/23 09:40:30;;;;;;;4.10;1.35;;;;;;;;;;5055417;28;20057;-82
2022/05/23 09:49:09;;;;;;;17.17;1.90;;;;;;;;;;5055625;28;20564;-85
2022/05/23 09:51:36;;;;;;;;;;;;;;;;;;5055047;28;20087;-85
2022/05/23 09:54:04;;;;;;;2.60;1.00;;;;;;;;;;5055233;28;20245;-85
2022/05/23 09:56:34;;;;;;;2.35;1.13;;;;;;;;;;5054266;28;20045;-85
2022/05/23 09:59:06;;;;;;;3.67;1.20;;;;;;;;;;5054207;28;20080;-86
2022/05/23 10:01:34;;;;;;;11.90;2.90;;;;;;;;;;5054288;28;20053;-85
2022/05/23 10:04:02;;;;;;;1.58;1.08;;;;;;;;;;5055277;28;20053;-85
2022/05/23 10:06:34;;;;;;;4.43;1.02;;;;;;;;;;5054070;28;20589;-85
2022/05/23 10:09:01;;;;;;;2.80;1.10;;;;;;;;;;5054000;28;20144;-85
2022/05/23 10:11:30;;;;;;;1.63;1.10;;;;;;;;;;5053528;28;20132;-85
2022/05/23 10:13:59;;;;;;;1.85;1.25;;;;;;;;;;5053804;28;20102;-85
2022/05/23 10:16:30;;;;;;;2.30;1.42;;;;;;;;;;5054902;28;20517;-85
2022/05/23 10:19:00;;;;;;;3.75;1.13;;;;;;;;;;5055181;28;20401;-85
2022/05/23 10:21:31;;;;;;;5.53;1.33;;;;;;;;;;5053567;28;20049;-84
2022/05/23 10:24:03;;;;;;;3.53;1.27;;;;;;;;;;5054374;28;20143;-85
2022/05/23 10:26:33;;;;;;;5.15;0.90;;;;;;;;;;5054298;28;20045;-85
2022/05/23 10:29:05;;;;;;;3.70;1.15;;;;;;;;;;5054650;28;20068;-85
2022/05/23 10:31:43;;;;;;;1.85;1.40;;;;;;;;;;5053998;28;20467;-85
2022/05/23 10:34:28;;;;;;;8.75;1.85;;;;;;;;;;5054300;28;20053;-85
2022/05/23 10:36:57;;;;;;;2.35;1.38;;;;;;;;;;5053175;28;20056;-83
2022/05/23 10:42:16;;;;;;;3.13;1.27;;;;;;;;;;5054135;28;20045;-84
2022/05/23 10:45:02;;;;;;;2.60;1.20;;;;;;;;;;5052793;28;20131;-83
2022/05/23 10:47:39;;;;;;;1.38;1.10;;;;;;;;;;5053078;28;20095;-83
2022/05/23 10:50:14;;;;;;;3.22;1.27;;;;;;;;;;5052872;28;20128;-84
2022/05/23 10:52:50;;;;;;;2.05;1.10;;;;;;;;;;5054361;28;20106;-84
2022/05/23 10:55:26;;;;;;;4.00;1.30;;;;;;;;;;5053621;28;20091;-85
2022/05/23 10:57:59;;;;;;;7.75;1.30;;;;;;;;;;5054405;28;20051;-84
2022/05/23 11:00:32;;;;;;;5.15;1.40;;;;;;;;;;5053181;28;20106;-84
2022/05/23 11:03:00;;;;;;;;;;;;;;;;;;5053447;28;20136;-85
2022/05/23 11:05:27;;;;;;;7.43;1.38;;;;;;;;;;5035914;28;19925;-85
2022/05/23 11:08:07;;;;;;;6.63;1.50;;;;;;;;;;5052792;28;20569;-85
2022/05/23 11:11:12;;;;;;;4.88;1.55;;;;;;;;;;5052700;28;20059;-85
2022/05/23 11:14:00;;;;;;;3.78;1.23;;;;;;;;;;4957122;28;20522;-85
2022/05/23 11:16:46;;;;;;;3.00;1.40;;;;;;;;;;4956692;28;20051;-85
2022/05/23 11:19:25;;;;;;;3.15;1.10;;;;;;;;;;5016612;28;20076;-85
2022/05/23 11:22:16;;;;;;;2.95;1.17;;;;;;;;;;5053832;28;20551;-85
2022/05/23 11:24:48;;;;;;;5.90;1.20;;;;;;;;;;5052219;28;20055;-84
2022/05/23 11:35:48;;;;;;;2.83;1.35;;;;;;;;;;5053362;28;20045;-84
2022/05/23 11:38:16;;;;;;;2.22;1.35;;;;;;;;;;5051976;28;20084;-85
2022/05/23 11:40:59;;;;;;;1.30;1.02;;;;;;;;;;5052142;28;20076;-84
2022/05/23 11:43:27;;;;;;;3.25;1.10;;;;;;;;;;5052857;28;20136;-84
2022/05/23 11:45:59;;;;;;;3.20;1.17;;;;;;;;;;5052256;28;20055;-86
2022/05/23 11:48:30;;;;;;;6.90;1.25;;;;;;;;;;5052280;28;20382;-84
2022/05/23 11:51:08;;;;;;;2.47;1.13;;;;;;;;;;5052222;28;20140;-85
2022/05/23 11:53:37;;;;;;;2.03;0.98;;;;;;;;;;5053155;28;20053;-84
2022/05/23 11:56:06;;;;;;;6.90;1.25;;;;;;;;;;5051748;28;20139;-84
2022/05/23 11:58:50;;;;;;;2.55;1.00;;;;;;;;;;5052010;28;20056;-84
2022/05/23 12:01:19;;;;;;;5.72;1.10;;;;;;;;;;5051911;28;20091;-84
2022/05/23 12:03:54;;;;;;;4.47;1.30;;;;;;;;;;5051624;28;20440;-85
2022/05/23 12:06:25;;;;;;;0.95;0.82;;;;;;;;;;5052567;28;20044;-82
2022/05/23 12:08:58;;;;;;;2.45;0.80;;;;;;;;;;5052795;28;20099;-84
2022/05/23 12:11:26;;;;;;;5.30;1.77;;;;;;;;;;5053040;28;20119;-87
2022/05/23 12:13:58;;;;;;;18.63;2.88;;;;;;;;;;5051562;28;20112;-84
2022/05/23 12:16:31;;;;;;;3.25;1.13;;;;;;;;;;5051267;28;20049;-84
2022/05/23 12:19:14;;;;;;;4.43;1.10;;;;;;;;;;5052630;28;20055;-85
2022/05/23 12:21:44;;;;;;;2.42;1.13;;;;;;;;;;5051729;28;20127;-85
2022/05/23 12:24:14;;;;;;;10.20;1.83;;;;;;;;;;5051326;28;20088;-85
2022/05/23 12:27:04;;;;;;;5.40;1.30;;;;;;;;;;5052698;28;20055;-85
2022/05/23 12:29:38;;;;;;;5.90;1.45;;;;;;;;;;5051254;28;20140;-85
2022/05/23 12:32:05;;;;;;;2.72;1.52;;;;;;;;;;5051329;28;20057;-85
2022/05/23 12:34:37;;;;;;;1.50;0.85;;;;;;;;;;5051352;28;20057;-85
2022/05/23 12:37:04;;;;;;;3.13;0.88;;;;;;;;;;5052531;28;20076;-85
2022/05/23 12:39:39;;;;;;;18.17;4.28;;;;;;;;;;5052452;28;20099;-85
2022/05/23 12:42:06;;;;;;;9.15;1.70;;;;;;;;;;5051594;28;20124;-85
2022/05/23 12:44:49;;;;;;;7.70;1.77;;;;;;;;;;5050994;28;20049;-85
2022/05/23 12:47:22;;;;;;;2.60;1.30;;;;;;;;;;5051400;28;20045;-84
2022/05/23 12:50:01;;;;;;;5.10;1.25;;;;;;;;;;5051539;28;20458;-85
2022/05/23 12:52:47;;;;;;;3.25;1.17;;;;;;;;;;5055614;28;20060;-85
2022/05/23 12:55:33;;;;;;;6.05;1.20;;;;;;;;;;5056327;28;20045;-85
2022/05/23 12:58:19;;;;;;;6.05;2.25;;;;;;;;;;5055565;28;20049;-85
2022/05/23 13:00:46;;;;;;;7.32;2.75;;;;;;;;;;5055207;28;20148;-84
2022/05/23 13:03:32;;;;;;;7.55;1.90;;;;;;;;;;5054821;28;20079;-88
2022/05/23 13:06:17;;;;;;;2.22;1.08;;;;;;;;;;5055011;28;20055;-87
2022/05/23 13:08:48;;;;;;;4.32;1.33;;;;;;;;;;5055197;28;20152;-86
2022/05/23 13:11:22;;;;;;;14.75;3.92;;;;;;;;;;5055097;28;20048;-85
2022/05/23 13:13:50;;;;;;;1.38;0.95;;;;;;;;;;5055326;28;20139;-84
2022/05/23 13:16:25;;;;;;;0.90;0.90;;;;;;;;;;5055827;28;20440;-84
2022/05/23 13:27:14;;;;;;;1.92;0.88;;;;;;;;;;5055861;28;20106;-84
2022/05/23 13:29:41;;;;;;;4.53;1.38;;;;;;;;;;5054586;28;20064;-82
2022/05/23 13:32:12;;;;;;;4.40;1.10;;;;;;;;;;5054324;28;20056;-83
2022/05/23 13:34:41;;;;;;;1.90;1.00;;;;;;;;;;5054027;28;20131;-84
2022/05/23 13:37:09;;;;;;;7.07;1.13;;;;;;;;;;5054561;28;20053;-83
2022/05/23 13:39:44;;;;;;;2.50;0.98;;;;;;;;;;5054173;28;20124;-83
2022/05/23 13:42:22;;;;;;;5.68;1.27;;;;;;;;;;5054423;28;20049;-85
2022/05/23 13:44:49;;;;;;;4.40;1.13;;;;;;;;;;5054151;28;20049;-88
2022/05/23 13:47:21;;;;;;;7.78;1.10;;;;;;;;;;5054538;28;20133;-92
2022/05/23 13:49:52;;;;;;;2.63;1.27;;;;;;;;;;5055058;28;20516;-85
2022/05/23 13:52:23;;;;;;;5.28;1.30;;;;;;;;;;5054005;28;20063;-83
2022/05/23 13:54:54;;;;;;;3.60;1.58;;;;;;;;;;5053705;28;20053;-85
2022/05/23 13:57:24;;;;;;;7.15;1.10;;;;;;;;;;5053988;28;20103;-94
2022/05/23 13:59:54;;;;;;;3.33;1.40;;;;;;;;;;5055234;28;20081;-83
2022/05/23 14:02:23;;;;;;;7.70;2.28;;;;;;;;;;5053521;28;20485;-84
2022/05/23 14:04:50;;;;;;;10.35;1.85;;;;;;;;;;5053239;28;20055;-85
2022/05/23 14:07:19;;;;;;;4.78;1.40;;;;;;;;;;5054746;28;20122;-84
2022/05/23 14:09:51;;;;;;;6.85;1.20;;;;;;;;;;5054471;28;20135;-85
2022/05/23 14:12:21;;;;;;;52.25;5.40;;;;;;;;;;5055386;28;20478;-86
2022/05/23 14:14:53;;;;;;;4.05;1.30;;;;;;;;;;5053939;28;20464;-85
2022/05/23 14:17:26;;;;;;;3.05;1.23;;;;;;;;;;5053722;28;20405;-83
2022/05/23 14:19:55;;;;;;;5.03;1.40;;;;;;;;;;5053693;28;20131;-84
2022/05/23 14:22:32;;;;;;;3.10;1.38;;;;;;;;;;5053505;28;20076;-86
2022/05/23 14:25:01;;;;;;;6.03;1.40;;;;;;;;;;5053701;28;20548;-89
2022/05/23 14:27:30;;;;;;;20.50;5.07;;;;;;;;;;5053950;28;20041;-85
2022/05/23 14:30:17;;;;;;;16.65;3.50;;;;;;;;;;5054345;28;20060;-84
2022/05/23 14:32:55;;;;;;;19.40;3.53;;;;;;;;;;5053673;28;20060;-85
2022/05/23 14:35:24;;;;;;;13.18;3.00;;;;;;;;;;5053433;28;20144;-85
2022/05/23 14:37:53;;;;;;;3.22;1.48;;;;;;;;;;5054909;28;20080;-85
2022/05/23 14:40:39;;;;;;;8.20;2.05;;;;;;;;;;5053476;28;20049;-84
2022/05/23 14:43:11;;;;;;;2.92;1.48;;;;;;;;;;5053691;28;20057;-86
2022/05/23 14:45:48;;;;;;;3.78;1.38;;;;;;;;;;5053710;28;20057;-85
2022/05/23 14:48:19;;;;;;;5.72;2.10;;;;;;;;;;5054660;28;20045;-83
2022/05/23 14:50:54;;;;;;;2.63;1.52;;;;;;;;;;5054306;28;20083;-83
2022/05/23 14:56:16;;;;;;;5.95;1.90;;;;;;;;;;5054506;28;20505;-86
2022/05/23 15:01:29;;;;;;;3.60;1.23;;;;;;;;;;5054706;28;20138;-85
2022/05/23 15:03:56;;;;;;;1.73;1.42;;;;;;;;;;5053461;28;20051;-86
2022/05/23 15:06:24;;;;;;;2.42;1.52;;;;;;;;;;5054445;28;20056;-86
2022/05/23 15:08:52;;;;;;;2.78;1.30;;;;;;;;;;5054455;28;20135;-87
2022/05/23 15:11:19;;;;;;;6.60;1.80;;;;;;;;;;5053491;28;20136;-87
2022/05/23 15:13:47;;;;;;;6.15;1.30;;;;;;;;;;5052504;28;20067;-87
2022/05/23 15:16:19;;;;;;;12.60;3.45;;;;;;;;;;5054223;28;20143;-87
2022/05/23 15:18:47;;;;;;;3.40;1.70;;;;;;;;;;5053513;28;20087;-87
2022/05/23 15:21:15;;;;;;;5.68;1.83;;;;;;;;;;5053409;28;20139;-87
2022/05/23 15:23:42;;;;;;;5.82;1.90;;;;;;;;;;5053258;28;20049;-85
2022/05/23 15:26:12;;;;;;;3.08;1.30;;;;;;;;;;5052852;28;20517;-84
2022/05/23 15:28:39;;;;;;;3.30;1.60;;;;;;;;;;5053924;28;20132;-86
2022/05/23 15:31:07;;;;;;;10.57;2.03;;;;;;;;;;5052407;28;20414;-85
2022/05/23 15:33:35;;;;;;;4.43;1.80;;;;;;;;;;5052470;28;20059;-85
2022/05/23 15:36:02;;;;;;;3.17;1.60;;;;;;;;;;5045268;28;20124;-85
2022/05/23 15:38:29;;;;;;;5.32;1.70;;;;;;;;;;5053614;28;20135;-86
2022/05/23 15:40:56;;;;;;;2.03;1.52;;;;;;;;;;5053203;28;20055;-88
2022/05/23 15:43:23;;;;;;;4.32;2.10;;;;;;;;;;5052435;28;20071;-86
2022/05/23 15:45:52;;;;;;;4.22;2.25;;;;;;;;;;5053181;28;20088;-86
2022/05/23 15:48:21;;;;;;;4.68;1.67;;;;;;;;;;5052338;28;20049;-85
2022/05/23 15:50:48;;;;;;;3.88;1.40;;;;;;;;;;5052497;28;20160;-86
2022/05/23 15:53:16;;;;;;;10.45;1.70;;;;;;;;;;5053005;28;20493;-86
2022/05/23 15:55:50;;;;;;;2.88;1.30;;;;;;;;;;5053219;28;20060;-86
2022/05/23 15:58:17;;;;;;;11.90;2.63;;;;;;;;;;5053401;28;20482;-88
2022/05/23 16:00:45;;;;;;;4.18;2.28;;;;;;;;;;5052575;28;20075;-86
2022/05/23 16:03:13;;;;;;;4.40;1.63;;;;;;;;;;5052495;28;20048;-87
2022/05/23 16:05:42;;;;;;;7.97;1.65;;;;;;;;;;5052715;28;20493;-85
2022/05/23 16:08:10;;;;;;;1.92;1.65;;;;;;;;;;5053068;28;20041;-86